createdAt,value
2018-01-14T00:02:41.743Z,102414.26
2018-01-14T00:05:42.723Z,102413.15
2018-01-14T00:08:43.672Z,102408.79
2018-01-14T00:11:44.667Z,102414.82
2018-01-14T00:14:45.635Z,102407.46
2018-01-14T00:17:46.639Z,102407.46
2018-01-14T00:20:47.586Z,102405.56
2018-01-14T00:23:48.562Z,102404.19
2018-01-14T00:26:49.491Z,102401.72
2018-01-14T00:29:50.501Z,102401.72
2018-01-14T00:32:51.438Z,102399.30
2018-01-14T00:35:52.464Z,102389.73
2018-01-14T00:38:53.479Z,102395.49
2018-01-14T00:41:54.479Z,102402.84
2018-01-14T00:44:55.502Z,102397.94
2018-01-14T00:47:56.486Z,102401.77
2018-01-14T00:50:57.435Z,102405.02
2018-01-14T00:53:58.462Z,102402.02
2018-01-14T00:56:59.426Z,102402.02
2018-01-14T01:00:00.370Z,102402.27
2018-01-14T01:03:01.379Z,102404.73
2018-01-14T01:06:02.543Z,102408.82
2018-01-14T01:09:03.825Z,102402.87
2018-01-14T01:12:04.959Z,102400.94
2018-01-14T01:15:05.929Z,102403.13
2018-01-14T01:18:06.859Z,102408.85
2018-01-14T01:21:07.854Z,102402.06
2018-01-14T01:24:08.862Z,102409.13
2018-01-14T01:27:09.856Z,102404.25
2018-01-14T01:30:10.782Z,102399.89
2018-01-14T01:33:11.762Z,102396.33
2018-01-14T01:36:12.694Z,102398.78
2018-01-14T01:39:13.863Z,102397.42
2018-01-14T01:42:14.826Z,102399.60
2018-01-14T01:45:15.843Z,102405.88
2018-01-14T01:48:16.826Z,102403.42
2018-01-14T01:51:17.779Z,102402.09
2018-01-14T01:54:18.759Z,102405.34
2018-01-14T01:57:19.703Z,102408.63
2018-01-14T02:00:20.690Z,102402.09
2018-01-14T02:03:21.798Z,102403.18
2018-01-14T02:06:23.295Z,102396.61
2018-01-14T02:09:24.274Z,102399.34
2018-01-14T02:12:25.254Z,102393.35
2018-01-14T02:15:26.282Z,102393.08
2018-01-14T02:18:27.295Z,102397.74
2018-01-14T02:21:28.324Z,102396.11
2018-01-14T02:24:29.292Z,102399.63
2018-01-14T02:27:30.233Z,102395.83
2018-01-14T02:30:31.218Z,102394.17
2018-01-14T02:33:32.238Z,102396.36
2018-01-14T02:36:33.219Z,102401.27
2018-01-14T02:39:34.227Z,102400.75
2018-01-14T02:42:35.199Z,102400.75
2018-01-14T02:45:36.142Z,102402.63
2018-01-14T02:48:37.139Z,102405.35
2018-01-14T02:51:38.115Z,102403.48
2018-01-14T02:54:39.099Z,102407.30
2018-01-14T02:57:40.043Z,102402.94
2018-01-14T03:00:41.286Z,102403.24
2018-01-14T03:03:42.194Z,102405.39
2018-01-14T03:06:43.191Z,102400.51
2018-01-14T03:09:44.307Z,102402.40
2018-01-14T03:12:45.214Z,102402.69
2018-01-14T03:15:46.224Z,102403.78
2018-01-14T03:18:47.254Z,102405.68
2018-01-14T03:21:48.234Z,102402.94
2018-01-14T03:24:49.406Z,102402.15
2018-01-14T03:27:50.399Z,102409.79
2018-01-14T03:30:51.387Z,102411.15
2018-01-14T03:33:52.367Z,102400.82
2018-01-14T03:36:53.364Z,102403.54
2018-01-14T03:39:54.283Z,102401.64
2018-01-14T03:42:55.278Z,102402.43
2018-01-14T03:45:56.239Z,102396.71
2018-01-14T03:48:57.235Z,102393.72
2018-01-14T03:51:58.193Z,102403.52
2018-01-14T03:54:59.178Z,102408.70
2018-01-14T03:58:00.132Z,102404.91
2018-01-14T04:01:01.132Z,102410.88
2018-01-14T04:04:02.106Z,102410.88
2018-01-14T04:07:03.050Z,102416.63
2018-01-14T04:10:04.294Z,102421.24
2018-01-14T04:13:05.202Z,102425.05
2018-01-14T04:16:06.127Z,102417.70
2018-01-14T04:19:07.083Z,102420.17
2018-01-14T04:22:08.051Z,102423.15
2018-01-14T04:25:08.990Z,102416.34
2018-01-14T04:28:10.000Z,102415.51
2018-01-14T04:31:10.971Z,102416.63
2018-01-14T04:34:12.022Z,102417.72
2018-01-14T04:37:13.019Z,102421.81
2018-01-14T04:40:13.990Z,102408.71
2018-01-14T04:43:14.958Z,102419.90
2018-01-14T04:46:15.940Z,102423.43
2018-01-14T04:49:16.906Z,102423.99
2018-01-14T04:52:17.909Z,102422.35
2018-01-14T04:55:18.859Z,102422.08
2018-01-14T04:58:20.649Z,102425.36
2018-01-14T05:01:21.624Z,102427.23
2018-01-14T05:04:22.618Z,102430.23
2018-01-14T05:07:23.554Z,102426.72
2018-01-14T05:10:24.546Z,102433.77
2018-01-14T05:13:25.562Z,102436.51
2018-01-14T05:16:26.507Z,102429.43
2018-01-14T05:19:27.451Z,102437.85
2018-01-14T05:22:28.502Z,102431.86
2018-01-14T05:25:29.507Z,102434.58
2018-01-14T05:28:30.503Z,102439.41
2018-01-14T05:31:31.451Z,102440.25
2018-01-14T05:34:32.706Z,102441.87
2018-01-14T05:37:33.710Z,102440.78
2018-01-14T05:40:34.838Z,102443.49
2018-01-14T05:43:35.754Z,102443.44
2018-01-14T05:46:37.776Z,102448.39
2018-01-14T05:49:38.739Z,102448.10
2018-01-14T05:52:39.727Z,102442.37
2018-01-14T05:55:40.675Z,102439.36
2018-01-14T05:58:42.686Z,102440.17
2018-01-14T06:01:43.810Z,102441.25
2018-01-14T06:04:44.826Z,102439.28
2018-01-14T06:07:45.850Z,102443.66
2018-01-14T06:10:46.790Z,102446.63
2018-01-14T06:13:47.771Z,102450.99
2018-01-14T06:16:48.728Z,102444.98
2018-01-14T06:19:49.746Z,102455.86
2018-01-14T06:22:50.666Z,102454.52
2018-01-14T06:25:51.686Z,102462.41
2018-01-14T06:28:52.619Z,102452.86
2018-01-14T06:31:53.638Z,102459.91
2018-01-14T06:34:54.562Z,102454.99
2018-01-14T06:37:55.614Z,102461.26
2018-01-14T06:40:56.639Z,102459.32
2018-01-14T06:43:57.581Z,102456.61
2018-01-14T06:46:58.586Z,102452.78
2018-01-14T06:49:59.559Z,102451.12
2018-01-14T06:53:00.518Z,102447.04
2018-01-14T06:56:01.519Z,102450.03
2018-01-14T06:59:02.464Z,102457.13
2018-01-14T07:02:03.455Z,102464.21
2018-01-14T07:05:04.402Z,102471.31
2018-01-14T07:08:05.419Z,102469.37
2018-01-14T07:11:06.367Z,102464.18
2018-01-14T07:14:07.441Z,102463.91
2018-01-14T07:17:08.424Z,102470.48
2018-01-14T07:20:09.398Z,102471.84
2018-01-14T07:23:10.363Z,102474.58
2018-01-14T07:26:11.355Z,102474.00
2018-01-14T07:29:12.317Z,102474.84
2018-01-14T07:32:13.303Z,102472.63
2018-01-14T07:35:14.265Z,102474.27
2018-01-14T07:38:15.260Z,102474.27
2018-01-14T07:41:16.201Z,102481.10
2018-01-14T07:44:17.211Z,102475.63
2018-01-14T07:47:18.147Z,102477.27
2018-01-14T07:50:19.186Z,102469.08
2018-01-14T07:53:20.260Z,102464.46
2018-01-14T07:56:21.223Z,102466.62
2018-01-14T07:59:22.166Z,102464.16
2018-01-14T08:02:23.171Z,102463.36
2018-01-14T08:05:24.308Z,102467.15
2018-01-14T08:08:25.192Z,102469.36
2018-01-14T08:11:26.187Z,102475.61
2018-01-14T08:14:27.131Z,102477.55
2018-01-14T08:17:29.172Z,102478.34
2018-01-14T08:20:30.094Z,102477.25
2018-01-14T08:23:31.113Z,102486.80
2018-01-14T08:26:32.055Z,102498.56
2018-01-14T08:29:33.055Z,102499.92
2018-01-14T08:32:34.171Z,102499.35
2018-01-14T08:35:35.109Z,102497.99
2018-01-14T08:38:36.089Z,102491.74
2018-01-14T08:41:37.038Z,102494.73
2018-01-14T08:44:38.039Z,102496.89
2018-01-14T08:47:38.986Z,102493.64
2018-01-14T08:50:39.998Z,102503.18
2018-01-14T08:53:40.902Z,102498.79
2018-01-14T08:56:41.817Z,102504.82
2018-01-14T08:59:42.711Z,102511.65
2018-01-14T09:02:43.690Z,102510.55
2018-01-14T09:05:44.645Z,102518.16
2018-01-14T09:08:45.668Z,102524.73
2018-01-14T09:11:46.686Z,102523.10
2018-01-14T09:14:48.710Z,102519.28
2018-01-14T09:17:49.659Z,102522.81
2018-01-14T09:20:50.675Z,102531.56
2018-01-14T09:23:51.722Z,102530.20
2018-01-14T09:26:52.758Z,102528.54
2018-01-14T09:29:53.682Z,102526.64
2018-01-14T09:32:54.667Z,102528.51
2018-01-14T09:35:55.614Z,102529.63
2018-01-14T09:38:56.762Z,102523.10
2018-01-14T09:41:57.847Z,102519.78
2018-01-14T09:44:59.031Z,102525.78
2018-01-14T09:48:00.072Z,102524.39
2018-01-14T09:51:01.038Z,102524.93
2018-01-14T09:54:02.010Z,102520.57
2018-01-14T09:57:02.955Z,102528.47
2018-01-14T10:00:03.955Z,102529.54
2018-01-14T10:03:04.942Z,102531.46
2018-01-14T10:06:05.882Z,102527.94
2018-01-14T10:09:06.879Z,102524.93
2018-01-14T10:12:07.838Z,102520.00
2018-01-14T10:15:08.855Z,102518.63
2018-01-14T10:18:09.790Z,102517.27
2018-01-14T10:21:11.004Z,102513.17
2018-01-14T10:24:11.939Z,102511.55
2018-01-14T10:27:12.956Z,102506.61
2018-01-14T10:30:13.887Z,102503.61
2018-01-14T10:33:14.906Z,102502.53
2018-01-14T10:36:15.872Z,102497.83
2018-01-14T10:39:16.831Z,102497.26
2018-01-14T10:42:18.075Z,102493.44
2018-01-14T10:45:19.043Z,102492.35
2018-01-14T10:48:20.071Z,102482.44
2018-01-14T10:51:21.047Z,102487.91
2018-01-14T10:54:21.999Z,102481.04
2018-01-14T10:57:22.947Z,102476.42
2018-01-14T11:00:24.235Z,102481.57
2018-01-14T11:03:25.205Z,102476.91
2018-01-14T11:06:26.317Z,102470.35
2018-01-14T11:09:27.377Z,102463.25
2018-01-14T11:12:28.374Z,102464.08
2018-01-14T11:15:29.375Z,102465.99
2018-01-14T11:18:30.324Z,102467.09
2018-01-14T11:21:31.355Z,102461.62
2018-01-14T11:24:32.278Z,102459.99
2018-01-14T11:27:33.291Z,102451.75
2018-01-14T11:30:34.223Z,102454.48
2018-01-14T11:33:35.250Z,102451.75
2018-01-14T11:36:36.172Z,102452.59
2018-01-14T11:39:37.166Z,102453.69
2018-01-14T11:42:38.119Z,102446.33
2018-01-14T11:45:39.143Z,102444.96
2018-01-14T11:48:40.087Z,102443.06
2018-01-14T11:51:41.087Z,102439.27
2018-01-14T11:54:42.040Z,102440.10
2018-01-14T11:57:43.031Z,102442.57
2018-01-14T12:00:44.011Z,102434.41
2018-01-14T12:03:44.986Z,102434.41
2018-01-14T12:06:45.880Z,102432.25
2018-01-14T12:09:46.839Z,102440.44
2018-01-14T12:12:47.782Z,102436.61
2018-01-14T12:15:48.807Z,102436.08
2018-01-14T12:18:49.695Z,102430.89
2018-01-14T12:21:50.639Z,102425.72
2018-01-14T12:24:51.624Z,102425.45
2018-01-14T12:27:52.568Z,102426.29
2018-01-14T12:30:53.470Z,102417.45
2018-01-14T12:33:54.418Z,102028.81
2018-01-14T12:36:55.368Z,102410.58
2018-01-14T12:39:56.314Z,102412.52
2018-01-14T12:42:57.300Z,102415.78
2018-01-14T12:45:58.261Z,102418.21
2018-01-14T12:48:59.259Z,102413.54
2018-01-14T12:52:00.207Z,102410.01
2018-01-14T12:55:02.319Z,102407.02
2018-01-14T12:58:03.222Z,102403.19
2018-01-14T13:01:04.242Z,102409.76
2018-01-14T13:04:05.279Z,102403.19
2018-01-14T13:07:06.221Z,102400.19
2018-01-14T13:10:09.180Z,102403.19
2018-01-14T13:13:10.098Z,102408.65
2018-01-14T13:16:11.098Z,102413.54
2018-01-14T13:19:12.463Z,102408.16
2018-01-14T13:22:13.384Z,102410.93
2018-01-14T13:25:14.383Z,102356.31
2018-01-14T13:28:15.350Z,102405.55
2018-01-14T13:31:16.323Z,102399.51
2018-01-14T13:34:17.348Z,102407.36
2018-01-14T13:37:18.286Z,102401.03
2018-01-14T13:40:19.294Z,102406.22
2018-01-14T13:43:20.219Z,102400.76
2018-01-14T13:46:21.251Z,102407.28
2018-01-14T13:49:22.199Z,102405.38
2018-01-14T13:52:23.194Z,102410.01
2018-01-14T13:55:24.138Z,102409.45
2018-01-14T13:58:26.159Z,102415.70
2018-01-14T14:01:27.138Z,102410.51
2018-01-14T14:04:28.051Z,102416.50
2018-01-14T14:07:28.988Z,102412.67
2018-01-14T14:10:29.999Z,102417.60
2018-01-14T14:13:31.023Z,102418.63
2018-01-14T14:16:32.048Z,102418.63
2018-01-14T14:19:33.368Z,102419.73
2018-01-14T14:22:34.400Z,102421.36
2018-01-14T14:25:35.383Z,102424.37
2018-01-14T14:28:36.339Z,102423.79
2018-01-14T14:31:37.382Z,102427.62
2018-01-14T14:34:38.301Z,102428.15
2018-01-14T14:37:39.453Z,102433.35
2018-01-14T14:40:40.480Z,102431.67
2018-01-14T14:43:41.416Z,102433.31
2018-01-14T14:46:42.343Z,102435.21
2018-01-14T14:49:43.249Z,102437.99
2018-01-14T14:52:44.198Z,102433.88
2018-01-14T14:55:45.171Z,102432.52
2018-01-14T14:58:46.183Z,102433.61
2018-01-14T15:01:47.135Z,102431.98
2018-01-14T15:04:48.402Z,102434.45
2018-01-14T15:07:49.322Z,102438.55
2018-01-14T15:10:50.385Z,102437.76
2018-01-14T15:13:51.826Z,102441.60
2018-01-14T15:16:52.939Z,102447.96
2018-01-14T15:19:53.879Z,102444.69
2018-01-14T15:22:54.906Z,102440.90
2018-01-14T15:25:55.842Z,102449.40
2018-01-14T15:28:56.863Z,102446.14
2018-01-14T15:31:57.806Z,102443.93
2018-01-14T15:34:58.855Z,102451.60
2018-01-14T15:37:59.775Z,102454.90
2018-01-14T15:41:00.791Z,102450.80
2018-01-14T15:44:01.763Z,102450.84
2018-01-14T15:47:02.771Z,102453.83
2018-01-14T15:50:03.727Z,102456.56
2018-01-14T15:53:04.748Z,102456.87
2018-01-14T15:56:05.702Z,102462.33
2018-01-14T15:59:06.736Z,102464.80
2018-01-14T16:02:07.678Z,102464.52
2018-01-14T16:05:08.715Z,102466.99
2018-01-14T16:08:09.662Z,102465.63
2018-01-14T16:11:10.707Z,102468.09
2018-01-14T16:14:11.655Z,102474.08
2018-01-14T16:17:12.691Z,102469.19
2018-01-14T16:20:13.635Z,102468.92
2018-01-14T16:23:14.667Z,102456.89
2018-01-14T16:26:15.648Z,102459.89
2018-01-14T16:29:16.647Z,102462.36
2018-01-14T16:32:17.659Z,102471.38
2018-01-14T16:35:18.563Z,102472.53
2018-01-14T16:38:19.534Z,102472.03
2018-01-14T16:41:20.512Z,102465.08
2018-01-14T16:44:21.503Z,102464.15
2018-01-14T16:47:22.486Z,102464.39
2018-01-14T16:50:23.424Z,102467.09
2018-01-14T16:53:24.418Z,102467.81
2018-01-14T16:56:25.368Z,102472.45
2018-01-14T16:59:26.358Z,102465.05
2018-01-14T17:02:27.311Z,102460.06
2018-01-14T17:05:28.327Z,102455.92
2018-01-14T17:08:29.267Z,102458.39
2018-01-14T17:11:30.286Z,102459.99
2018-01-14T17:14:31.412Z,102460.25
2018-01-14T17:17:32.509Z,102457.21
2018-01-14T17:20:33.471Z,102453.95
2018-01-14T17:23:34.491Z,102451.26
2018-01-14T17:26:35.410Z,102448.00
2018-01-14T17:29:36.445Z,102442.48
2018-01-14T17:32:37.349Z,102443.01
2018-01-14T17:35:39.055Z,102440.90
2018-01-14T17:38:39.968Z,102448.31
2018-01-14T17:41:40.916Z,102447.77
2018-01-14T17:44:41.842Z,102449.40
2018-01-14T17:47:42.747Z,102451.56
2018-01-14T17:50:43.675Z,102453.50
2018-01-14T17:53:44.572Z,102452.45
2018-01-14T17:56:45.499Z,102453.81
2018-01-14T17:59:46.412Z,102462.80
2018-01-14T18:02:47.363Z,102465.54
2018-01-14T18:05:48.272Z,102459.28
2018-01-14T18:08:49.193Z,102462.01
2018-01-14T18:11:50.110Z,102458.44
2018-01-14T18:14:51.043Z,102463.37
2018-01-14T18:17:52.051Z,102461.93
2018-01-14T18:20:52.951Z,102469.82
2018-01-14T18:23:54.169Z,102468.99
2018-01-14T18:26:55.071Z,102460.56
2018-01-14T18:29:55.987Z,102463.03
2018-01-14T18:32:56.879Z,102459.46
2018-01-14T18:35:57.807Z,102464.13
2018-01-14T18:38:58.751Z,102464.92
2018-01-14T18:41:59.683Z,102464.40
2018-01-14T18:45:00.591Z,102469.02
2018-01-14T18:48:01.543Z,102473.65
2018-01-14T18:51:02.485Z,102480.48
2018-01-14T18:54:03.390Z,102477.22
2018-01-14T18:57:04.353Z,102483.75
2018-01-14T19:00:05.275Z,102482.91
2018-01-14T19:03:06.251Z,102479.96
2018-01-14T19:06:07.182Z,102479.38
2018-01-14T19:09:08.232Z,102478.33
2018-01-14T19:12:09.151Z,102488.72
2018-01-14T19:15:10.159Z,102487.93
2018-01-14T19:18:11.142Z,102488.46
2018-01-14T19:21:12.179Z,102490.44
2018-01-14T19:24:13.195Z,102494.53
2018-01-14T19:27:14.162Z,102496.20
2018-01-14T19:30:15.396Z,102504.66
2018-01-14T19:33:16.328Z,102501.40
2018-01-14T19:36:17.331Z,102500.08
2018-01-14T19:39:18.299Z,102504.47
2018-01-14T19:42:19.259Z,102494.37
2018-01-14T19:45:20.265Z,102486.48
2018-01-14T19:48:21.315Z,102483.21
2018-01-14T19:51:22.364Z,102478.01
2018-01-14T19:54:23.293Z,102479.16
2018-01-14T19:57:24.303Z,102480.51
2018-01-14T20:00:25.250Z,102477.25
2018-01-14T20:03:26.410Z,102477.54
2018-01-14T20:06:27.379Z,102470.98
2018-01-14T20:09:28.383Z,102474.32
2018-01-14T20:12:29.481Z,102471.05
2018-01-14T20:15:30.413Z,102471.58
2018-01-14T20:18:31.434Z,102475.72
2018-01-14T20:21:32.391Z,102471.05
2018-01-14T20:24:33.657Z,102468.32
2018-01-14T20:27:34.567Z,102470.78
2018-01-14T20:30:35.596Z,102472.72
2018-01-14T20:33:36.561Z,102476.52
2018-01-14T20:36:37.571Z,102474.02
2018-01-14T20:39:38.632Z,102465.51
2018-01-14T20:42:39.654Z,102472.92
2018-01-14T20:45:40.630Z,102475.07
2018-01-14T20:48:41.606Z,102471.86
2018-01-14T20:51:42.895Z,102474.32
2018-01-14T20:54:43.806Z,102476.48
2018-01-14T20:57:44.864Z,102425.63
2018-01-14T21:00:45.815Z,102475.95
2018-01-14T21:03:46.879Z,102478.91
2018-01-14T21:06:47.974Z,102480.89
2018-01-14T21:09:48.886Z,102477.89
2018-01-14T21:12:49.910Z,102481.98
2018-01-14T21:15:50.807Z,102482.57
2018-01-14T21:18:52.544Z,102487.80
2018-01-14T21:21:53.510Z,102486.72
2018-01-14T21:24:54.534Z,102493.81
2018-01-14T21:27:55.502Z,102480.46
2018-01-14T21:30:56.537Z,102479.13
2018-01-14T21:33:57.515Z,102478.85
2018-01-14T21:36:58.447Z,102478.32
2018-01-14T21:39:59.406Z,102477.26
2018-01-14T21:43:00.343Z,102479.45
2018-01-14T21:46:01.382Z,102475.08
2018-01-14T21:49:02.295Z,102469.35
2018-01-14T21:52:03.825Z,102468.28
2018-01-14T21:55:04.819Z,102468.02
2018-01-14T21:58:05.848Z,102476.77
2018-01-14T22:01:06.799Z,102476.23
2018-01-14T22:04:07.831Z,102479.52
2018-01-14T22:07:08.798Z,102483.35
2018-01-14T22:10:09.740Z,102480.07
2018-01-14T22:13:10.736Z,102486.09
2018-01-14T22:16:11.775Z,102476.84
2018-01-14T22:19:12.763Z,102469.74
2018-01-14T22:22:13.707Z,102481.22
2018-01-14T22:25:14.695Z,102473.59
2018-01-14T22:28:15.626Z,102475.78
2018-01-14T22:31:16.627Z,102474.15
2018-01-14T22:34:17.647Z,102463.22
2018-01-14T22:37:18.659Z,102456.44
2018-01-14T22:40:19.707Z,102453.70
2018-01-14T22:43:20.732Z,102452.59
2018-01-14T22:46:21.704Z,102457.26
2018-01-14T22:49:22.687Z,102450.43
2018-01-14T22:52:23.934Z,102448.26
2018-01-14T22:55:24.955Z,102447.47
2018-01-14T22:58:25.953Z,102450.44
2018-01-14T23:01:26.983Z,102457.26
2018-01-14T23:04:27.960Z,102451.57
2018-01-14T23:07:28.991Z,102449.94
2018-01-14T23:10:29.979Z,102448.03
2018-01-14T23:13:30.999Z,102451.33
2018-01-14T23:16:31.996Z,102450.22
2018-01-14T23:19:32.947Z,102448.62
2018-01-14T23:22:33.946Z,102448.62
2018-01-14T23:25:34.951Z,102450.24
2018-01-14T23:28:35.999Z,102442.35
2018-01-14T23:31:36.955Z,102439.36
2018-01-14T23:34:37.979Z,102447.27
2018-01-14T23:37:38.970Z,102432.00
2018-01-14T23:40:39.915Z,102429.83
2018-01-14T23:43:40.894Z,102436.90
2018-01-14T23:46:41.823Z,102441.56
2018-01-14T23:49:42.851Z,102443.74
2018-01-14T23:52:43.859Z,102444.27
2018-01-14T23:55:44.886Z,102441.27
2018-01-14T23:58:45.878Z,102437.48
